UAOO

Kzyl-Orda Southwest Airport

Kzyl-Orda, Kazakhstan
TAF UAOO 251400Z 2515/2524 VRB02MPS 9999 SCT033CB
Issued Valid From Valid To
Apr-25 @ 14:00 UTC
(4 hours ago)
Apr-25 @ 15:00 UTC
(3 hours ago)
Apr-26 @ 00:00 UTC
(in 6 hours)
Apr-25 @ 15:00 to Apr-26 @ 00:00
TAF UAOO 251400Z 2515/2524 VRB02MPS 9999 SCT033CB
Wind Visibility Clouds
Variable at 4 knots 10,000+ meters
  • Scattered at 3,300' AGL
TAF UAOO 251400Z 2515/2524 VRB02MPS 9999 SCT033CB
Issued Apr-25 @ 14:00 UTC
(4 hours ago)
Valid From Apr-25 @ 15:00 UTC
(3 hours ago)
Valid To Apr-26 @ 00:00 UTC
(in 6 hours)
Apr-25 @ 15:00 - Apr-26 @ 00:00
Wind Visibility
Variable at 4 knots 10,000+ meters
Clouds
  • Scattered at 3,300' AGL